createdAt,value
2022-11-27T00:01:33.798Z,101751.09
2022-11-27T00:04:01.685Z,101746.78
2022-11-27T00:06:31.747Z,101745.31
2022-11-27T00:09:01.214Z,101755.44
2022-11-27T00:11:30.895Z,101750.38
2022-11-27T00:13:59.532Z,101743.19
2022-11-27T00:16:28.673Z,101743.47
2022-11-27T00:18:56.569Z,101748.72
2022-11-27T00:21:29.965Z,101746.97
2022-11-27T00:24:00.278Z,101740.06
2022-11-27T00:26:34.485Z,101738.44
2022-11-27T00:29:05.821Z,101741.81
2022-11-27T00:31:37.230Z,101745.13
2022-11-27T00:34:07.977Z,101741.63
2022-11-27T00:36:37.000Z,101746.59
2022-11-27T00:39:04.986Z,101740.75
2022-11-27T00:41:33.349Z,101746.78
2022-11-27T00:44:01.089Z,101748.53
2022-11-27T00:46:31.199Z,101736.13
2022-11-27T00:49:00.573Z,101737.00
2022-11-27T00:51:29.179Z,101739.66
2022-11-27T00:53:57.222Z,101740.41
2022-11-27T00:56:36.891Z,101730.97
2022-11-27T00:59:05.986Z,101739.50
2022-11-27T01:01:40.762Z,101731.63
2022-11-27T01:04:11.766Z,101741.03
2022-11-27T01:06:39.965Z,101745.34
2022-11-27T01:09:08.066Z,101743.66
2022-11-27T01:11:37.682Z,101736.84
2022-11-27T01:14:11.396Z,101745.38
2022-11-27T01:16:42.865Z,101748.78
2022-11-27T01:19:12.213Z,101738.66
2022-11-27T01:21:40.839Z,101741.47
2022-11-27T01:24:10.500Z,101742.06
2022-11-27T01:26:38.503Z,101742.16
2022-11-27T01:29:06.832Z,101744.69
2022-11-27T01:31:35.311Z,101745.47
2022-11-27T01:34:06.943Z,101744.56
2022-11-27T01:36:36.221Z,101743.34
2022-11-27T01:39:04.401Z,101741.53
2022-11-27T01:41:41.303Z,101746.56
2022-11-27T01:44:24.462Z,101748.47
2022-11-27T01:47:13.540Z,101757.00
2022-11-27T01:49:50.516Z,101749.22
2022-11-27T01:52:23.987Z,101752.88
2022-11-27T01:55:04.355Z,101747.63
2022-11-27T01:57:39.953Z,101751.03
2022-11-27T02:00:10.556Z,101746.06
2022-11-27T02:02:43.939Z,101745.81
2022-11-27T02:05:16.600Z,101748.06
2022-11-27T02:07:45.759Z,101746.56
2022-11-27T02:10:13.687Z,101751.28
2022-11-27T02:12:52.419Z,101746.13
2022-11-27T02:15:24.241Z,101747.81
2022-11-27T02:18:10.027Z,101748.41
2022-11-27T02:21:08.317Z,101749.72
2022-11-27T02:24:00.688Z,101758.25
2022-11-27T02:26:47.046Z,101758.94
2022-11-27T02:29:19.686Z,101769.84
2022-11-27T02:31:55.457Z,101761.34
2022-11-27T02:34:23.846Z,101762.31
2022-11-27T02:37:15.774Z,101770.13
2022-11-27T02:40:03.969Z,101768.56
2022-11-27T02:42:39.258Z,101773.66
2022-11-27T02:45:12.534Z,101772.91
2022-11-27T02:47:44.072Z,101781.53
2022-11-27T02:50:18.227Z,101777.50
2022-11-27T02:52:47.334Z,101777.94
2022-11-27T02:55:19.015Z,101783.94
2022-11-27T02:57:48.840Z,101775.59
2022-11-27T03:00:17.487Z,101773.66
2022-11-27T03:02:54.215Z,101776.47
2022-11-27T03:05:26.885Z,101776.19
2022-11-27T03:08:05.200Z,101783.16
2022-11-27T03:10:36.457Z,101784.31
2022-11-27T03:13:04.740Z,101770.78
2022-11-27T03:15:56.369Z,101767.28
2022-11-27T03:18:58.128Z,101764.56
2022-11-27T03:21:34.244Z,101755.22
2022-11-27T03:24:02.458Z,101758.53
2022-11-27T03:26:30.940Z,101755.91
2022-11-27T03:29:00.946Z,101758.63
2022-11-27T03:31:29.244Z,101758.53
2022-11-27T03:33:57.873Z,101766.31
2022-11-27T03:36:25.889Z,101761.25
2022-11-27T03:38:55.520Z,101769.59
2022-11-27T03:41:50.759Z,101765.16
2022-11-27T03:44:43.845Z,101774.00
2022-11-27T03:47:20.310Z,101772.09
2022-11-27T03:49:53.652Z,101770.50
2022-11-27T03:52:43.264Z,101770.59
2022-11-27T03:55:33.620Z,101771.38
2022-11-27T03:58:07.712Z,101763.91
2022-11-27T04:00:40.145Z,101770.78
2022-11-27T04:03:12.990Z,101767.34
2022-11-27T04:05:41.272Z,101767.19
2022-11-27T04:08:09.177Z,101773.13
2022-11-27T04:10:36.855Z,101767.97
2022-11-27T04:13:05.182Z,101776.81
2022-11-27T04:15:32.883Z,101774.06
2022-11-27T04:18:00.817Z,101781.16
2022-11-27T04:20:29.549Z,101779.41
2022-11-27T04:22:57.803Z,101780.56
2022-11-27T04:25:25.516Z,101781.41
2022-11-27T04:27:53.451Z,101788.28
2022-11-27T04:30:21.171Z,101785.94
2022-11-27T04:32:49.099Z,101788.63
2022-11-27T04:35:16.865Z,101785.97
2022-11-27T04:37:44.921Z,101786.88
2022-11-27T04:40:13.238Z,101779.25
2022-11-27T04:42:41.217Z,101785.22
2022-11-27T04:45:09.514Z,101786.88
2022-11-27T04:47:37.428Z,101785.53
2022-11-27T04:50:05.799Z,101781.63
2022-11-27T04:52:33.928Z,101779.69
2022-11-27T04:55:01.558Z,101776.41
2022-11-27T04:57:29.554Z,101772.81
2022-11-27T04:59:57.240Z,101779.59
2022-11-27T05:02:25.360Z,101769.56
2022-11-27T05:04:53.320Z,101772.44
2022-11-27T05:07:21.455Z,101772.06
2022-11-27T05:09:49.177Z,101773.91
2022-11-27T05:12:17.275Z,101768.84
2022-11-27T05:14:44.941Z,101768.00
2022-11-27T05:17:12.932Z,101775.22
2022-11-27T05:19:40.712Z,101774.34
2022-11-27T05:22:08.640Z,101772.84
2022-11-27T05:24:36.373Z,101771.97
2022-11-27T05:27:04.324Z,101770.00
2022-11-27T05:29:32.106Z,101771.72
2022-11-27T05:32:00.003Z,101767.41
2022-11-27T05:34:27.711Z,101764.91
2022-11-27T05:36:55.694Z,101763.00
2022-11-27T05:39:23.863Z,101767.59
2022-11-27T05:41:51.789Z,101771.81
2022-11-27T05:44:19.410Z,101762.22
2022-11-27T05:46:47.627Z,101764.06
2022-11-27T05:49:16.844Z,101766.81
2022-11-27T05:51:50.715Z,101764.34
2022-11-27T05:54:19.611Z,101766.88
2022-11-27T05:56:47.558Z,101765.81
2022-11-27T05:59:15.607Z,101770.38
2022-11-27T06:01:44.030Z,101771.81
2022-11-27T06:04:11.832Z,101772.78
2022-11-27T06:06:39.788Z,101775.44
2022-11-27T06:09:12.481Z,101769.56
2022-11-27T06:11:42.143Z,101765.28
2022-11-27T06:14:10.396Z,101765.97
2022-11-27T06:16:38.746Z,101769.50
2022-11-27T06:19:07.283Z,101765.13
2022-11-27T06:21:35.525Z,101761.44
2022-11-27T06:24:03.351Z,101753.06
2022-11-27T06:26:33.189Z,101752.31
2022-11-27T06:29:01.572Z,101751.59
2022-11-27T06:31:32.307Z,101754.88
2022-11-27T06:34:00.546Z,101767.03
2022-11-27T06:36:34.973Z,101757.56
2022-11-27T06:39:04.194Z,101765.28
2022-11-27T06:41:32.297Z,101771.97
2022-11-27T06:44:02.310Z,101770.38
2022-11-27T06:46:31.014Z,101774.13
2022-11-27T06:48:59.695Z,101777.19
2022-11-27T06:51:30.091Z,101773.91
2022-11-27T06:53:59.665Z,101773.78
2022-11-27T06:56:30.106Z,101773.63
2022-11-27T06:59:00.227Z,101776.44
2022-11-27T07:01:30.071Z,101772.69
2022-11-27T07:03:58.430Z,101777.00
2022-11-27T07:06:27.409Z,101776.84
2022-11-27T07:08:55.997Z,101771.38
2022-11-27T07:11:27.547Z,101764.66
2022-11-27T07:13:57.571Z,101764.19
2022-11-27T07:16:27.414Z,101764.91
2022-11-27T07:18:58.395Z,101757.25
2022-11-27T07:21:27.559Z,101758.06
2022-11-27T07:23:56.674Z,101754.94
2022-11-27T07:26:27.100Z,101752.34
2022-11-27T07:28:55.460Z,101747.94
2022-11-27T07:31:28.382Z,101746.28
2022-11-27T07:33:57.236Z,101750.81
2022-11-27T07:36:27.759Z,101752.59
2022-11-27T07:38:55.805Z,101759.94
2022-11-27T07:41:23.909Z,101755.75
2022-11-27T07:43:51.963Z,101749.94
2022-11-27T07:46:24.154Z,101750.72
2022-11-27T07:48:52.889Z,101756.34
2022-11-27T07:51:22.492Z,101754.69
2022-11-27T07:53:53.262Z,101744.88
2022-11-27T07:56:21.294Z,101743.19
2022-11-27T07:58:49.659Z,101752.66
2022-11-27T08:01:19.568Z,101747.50
2022-11-27T08:03:47.866Z,101744.34
2022-11-27T08:06:23.910Z,101751.59
2022-11-27T08:08:53.379Z,101743.47
2022-11-27T08:11:25.494Z,101747.88
2022-11-27T08:13:58.445Z,101751.91
2022-11-27T08:16:26.586Z,101745.75
2022-11-27T08:18:54.939Z,101754.75
2022-11-27T08:21:23.051Z,101752.94
2022-11-27T08:23:51.374Z,101759.72
2022-11-27T08:26:19.497Z,101753.97
2022-11-27T08:28:47.481Z,101764.50
2022-11-27T08:31:15.748Z,101761.25
2022-11-27T08:33:43.758Z,101760.81
2022-11-27T08:36:16.339Z,101765.66
2022-11-27T08:38:46.991Z,101766.53
2022-11-27T08:41:15.107Z,101763.91
2022-11-27T08:43:43.235Z,101769.81
2022-11-27T08:46:11.534Z,101773.34
2022-11-27T08:48:39.863Z,101765.09
2022-11-27T08:51:10.008Z,101768.81
2022-11-27T08:53:39.584Z,101773.81
2022-11-27T08:56:09.815Z,101773.16
2022-11-27T08:58:37.839Z,101768.16
2022-11-27T09:01:14.989Z,101773.56
2022-11-27T09:03:43.356Z,101775.94
2022-11-27T09:06:13.528Z,101775.59
2022-11-27T09:08:42.721Z,101770.59
2022-11-27T09:11:12.098Z,101776.56
2022-11-27T09:13:40.536Z,101781.97
2022-11-27T09:16:11.130Z,101776.00
2022-11-27T09:18:39.647Z,101776.03
2022-11-27T09:21:12.281Z,101774.50
2022-11-27T09:23:40.915Z,101765.06
2022-11-27T09:26:14.889Z,101759.91
2022-11-27T09:28:44.270Z,101757.91
2022-11-27T09:31:14.786Z,101756.28
2022-11-27T09:33:43.396Z,101752.09
2022-11-27T09:36:20.048Z,101754.84
2022-11-27T09:38:48.539Z,101760.84
2022-11-27T09:41:46.549Z,101756.88
2022-11-27T09:44:29.811Z,101761.97
2022-11-27T09:47:13.340Z,101755.13
2022-11-27T09:49:54.877Z,101748.44
2022-11-27T09:52:25.575Z,101748.59
2022-11-27T09:55:05.875Z,101754.53
2022-11-27T09:57:37.790Z,101762.34
2022-11-27T10:00:26.233Z,101757.13
2022-11-27T10:02:54.407Z,101749.31
2022-11-27T10:05:43.430Z,101747.69
2022-11-27T10:08:28.986Z,101754.75
2022-11-27T10:11:42.972Z,101743.69
2022-11-27T10:15:07.906Z,101739.72
2022-11-27T10:17:56.172Z,101736.13
2022-11-27T10:20:51.149Z,101729.34
2022-11-27T10:23:43.416Z,101725.06
2022-11-27T10:26:20.036Z,101737.28
2022-11-27T10:29:21.909Z,101736.34
2022-11-27T10:31:53.330Z,101737.28
2022-11-27T10:34:32.325Z,101737.28
2022-11-27T10:37:06.900Z,101734.78
2022-11-27T10:39:48.815Z,101735.72
2022-11-27T10:42:26.256Z,101733.25
2022-11-27T10:45:05.995Z,101728.06
2022-11-27T10:47:34.432Z,101734.97
2022-11-27T10:50:02.389Z,101733.25
2022-11-27T10:52:30.248Z,101729.94
2022-11-27T10:55:02.975Z,101725.59
2022-11-27T10:57:48.868Z,101718.81
2022-11-27T11:00:20.728Z,101722.28
2022-11-27T11:02:48.832Z,101713.47
2022-11-27T11:08:20.446Z,101718.06
2022-11-27T11:10:58.893Z,101715.53
2022-11-27T11:13:30.807Z,101715.56
2022-11-27T11:16:16.710Z,101720.75
2022-11-27T11:18:52.044Z,101720.75
2022-11-27T11:21:27.135Z,101721.63
2022-11-27T11:24:01.102Z,101713.16
2022-11-27T11:26:36.106Z,101713.88
2022-11-27T11:29:18.497Z,101706.78
2022-11-27T11:31:46.708Z,101714.63
2022-11-27T11:34:25.608Z,101713.78
2022-11-27T11:37:02.113Z,101712.22
2022-11-27T11:39:40.353Z,101707.81
2022-11-27T11:42:20.264Z,101715.56
2022-11-27T11:45:06.178Z,101701.81
2022-11-27T11:47:34.622Z,101698.34
2022-11-27T11:50:02.364Z,101709.34
2022-11-27T11:52:54.705Z,101710.28
2022-11-27T11:55:34.665Z,101703.34
2022-11-27T11:58:39.630Z,101706.63
2022-11-27T12:01:29.097Z,101701.72
2022-11-27T12:04:02.907Z,101703.41
2022-11-27T12:06:51.409Z,101704.03
2022-11-27T12:09:38.688Z,101699.72
2022-11-27T12:12:19.338Z,101702.31
2022-11-27T12:14:50.172Z,101701.28
2022-11-27T12:17:35.069Z,101707.53
2022-11-27T12:20:02.957Z,101708.13
2022-11-27T12:22:52.371Z,101701.44
2022-11-27T12:25:32.647Z,101698.53
2022-11-27T12:28:41.628Z,101694.56
2022-11-27T12:31:41.288Z,101695.44
2022-11-27T12:34:24.256Z,101695.34
2022-11-27T12:37:11.112Z,101691.78
2022-11-27T12:40:03.536Z,101699.50
2022-11-27T12:42:41.106Z,101692.47
2022-11-27T12:45:27.621Z,101684.63
2022-11-27T12:48:13.848Z,101694.13
2022-11-27T12:50:43.749Z,101691.53
2022-11-27T12:53:33.603Z,101689.22
2022-11-27T12:56:24.551Z,101682.06
2022-11-27T12:59:14.413Z,101687.13
2022-11-27T13:01:50.914Z,101677.81
2022-11-27T13:04:40.376Z,101687.16
2022-11-27T13:07:31.110Z,101682.06
2022-11-27T13:10:11.636Z,101682.06
2022-11-27T13:13:02.113Z,101678.38
2022-11-27T13:15:51.032Z,101680.16
2022-11-27T13:18:36.832Z,101681.91
2022-11-27T13:21:15.136Z,101678.47
2022-11-27T13:23:43.064Z,101673.81
2022-11-27T13:26:30.052Z,101666.13
2022-11-27T13:29:06.690Z,101667.88
2022-11-27T13:31:39.237Z,101668.47
2022-11-27T13:34:14.930Z,101667.72
2022-11-27T13:36:47.152Z,101662.31
2022-11-27T13:39:42.462Z,101658.81
2022-11-27T13:42:21.258Z,101674.25
2022-11-27T13:45:01.805Z,101674.16
2022-11-27T13:47:40.533Z,101667.34
2022-11-27T13:50:10.614Z,101666.41
2022-11-27T13:52:50.796Z,101664.81
2022-11-27T13:55:40.084Z,101673.59
2022-11-27T13:58:08.703Z,101670.06
2022-11-27T14:00:38.841Z,101676.16
2022-11-27T14:03:20.457Z,101669.28
2022-11-27T14:05:48.211Z,101663.13
2022-11-27T14:08:24.139Z,101666.56
2022-11-27T14:11:13.246Z,101662.22
2022-11-27T14:13:45.886Z,101665.69
2022-11-27T14:16:32.186Z,101672.25
2022-11-27T14:19:22.399Z,101669.66
2022-11-27T14:21:50.203Z,101666.25
2022-11-27T14:24:43.777Z,101658.97
2022-11-27T14:27:25.288Z,101659.78
2022-11-27T14:29:53.817Z,101668.03
2022-11-27T14:32:22.335Z,101668.13
2022-11-27T14:34:51.206Z,101661.94
2022-11-27T14:37:27.705Z,101660.25
2022-11-27T14:39:56.176Z,101655.91
2022-11-27T14:42:30.092Z,101660.25
2022-11-27T14:45:06.264Z,101661.63
2022-11-27T14:47:34.998Z,101649.25
2022-11-27T14:50:04.078Z,101650.06
2022-11-27T14:52:32.114Z,101654.44
2022-11-27T14:55:01.159Z,101656.06
2022-11-27T14:57:30.258Z,101653.50
2022-11-27T15:00:24.147Z,101652.69
2022-11-27T15:02:53.410Z,101653.00
2022-11-27T15:05:29.900Z,101646.34
2022-11-27T15:08:00.721Z,101643.84
2022-11-27T15:10:32.429Z,101641.81
2022-11-27T15:13:02.381Z,101642.41
2022-11-27T15:15:44.534Z,101637.84
2022-11-27T15:18:22.997Z,101640.22
2022-11-27T15:20:52.071Z,101641.06
2022-11-27T15:23:29.288Z,101639.38
2022-11-27T15:26:00.130Z,101636.56
2022-11-27T15:28:36.148Z,101641.56
2022-11-27T15:31:32.773Z,101635.28
2022-11-27T15:34:21.198Z,101645.28
2022-11-27T15:36:50.688Z,101632.94
2022-11-27T15:39:20.147Z,101640.56
2022-11-27T15:42:02.595Z,101635.22
2022-11-27T15:44:32.658Z,101637.56
2022-11-27T15:47:03.469Z,101640.97
2022-11-27T15:49:32.091Z,101644.16
2022-11-27T15:52:00.154Z,101644.53
2022-11-27T15:54:27.971Z,101651.94
2022-11-27T15:56:55.977Z,101647.94
2022-11-27T15:59:24.964Z,101645.25
2022-11-27T16:01:53.132Z,101649.16
2022-11-27T16:04:20.950Z,101643.94
2022-11-27T16:06:49.073Z,101641.63
2022-11-27T16:09:16.877Z,101646.78
2022-11-27T16:11:45.083Z,101643.22
2022-11-27T16:14:12.862Z,101643.09
2022-11-27T16:16:41.007Z,101644.00
2022-11-27T16:19:12.160Z,101642.25
2022-11-27T16:21:40.796Z,101632.09
2022-11-27T16:24:11.562Z,101628.59
2022-11-27T16:26:40.049Z,101625.56
2022-11-27T16:29:09.573Z,101617.25
2022-11-27T16:31:38.336Z,101619.25
2022-11-27T16:34:07.216Z,101618.91
2022-11-27T16:36:35.539Z,101613.78
2022-11-27T16:39:03.677Z,101611.06
2022-11-27T16:41:32.183Z,101613.28
2022-11-27T16:43:59.996Z,101615.66
2022-11-27T16:46:30.676Z,101609.56
2022-11-27T16:49:00.784Z,101609.56
2022-11-27T16:51:33.961Z,101608.19
2022-11-27T16:54:04.578Z,101606.88
2022-11-27T16:56:34.343Z,101611.72
2022-11-27T16:59:09.452Z,101609.41
2022-11-27T17:01:38.423Z,101611.88
2022-11-27T17:04:09.122Z,101606.50
2022-11-27T17:06:39.027Z,101606.44
2022-11-27T17:09:08.120Z,101617.94
2022-11-27T17:11:37.955Z,101603.97
2022-11-27T17:14:07.871Z,101604.66
2022-11-27T17:16:38.893Z,101598.66
2022-11-27T17:19:06.793Z,101609.16
2022-11-27T17:21:35.974Z,101609.19
2022-11-27T17:24:13.154Z,101606.13
2022-11-27T17:26:46.083Z,101604.97
2022-11-27T17:29:16.363Z,101596.34
2022-11-27T17:31:45.005Z,101601.56
2022-11-27T17:34:16.070Z,101605.06
2022-11-27T17:36:46.006Z,101598.53
2022-11-27T17:39:15.540Z,101599.44
2022-11-27T17:41:45.237Z,101593.19
2022-11-27T17:44:13.481Z,101596.72
2022-11-27T17:46:44.977Z,101586.38
2022-11-27T17:49:13.970Z,101588.94
2022-11-27T17:51:42.029Z,101589.19
2022-11-27T17:54:11.637Z,101577.94
2022-11-27T17:56:40.406Z,101579.69
2022-11-27T17:59:10.190Z,101584.00
2022-11-27T18:01:38.876Z,101583.03
2022-11-27T18:04:06.949Z,101578.88
2022-11-27T18:06:36.074Z,101583.44
2022-11-27T18:09:04.698Z,101585.38
2022-11-27T18:11:34.186Z,101576.66
2022-11-27T18:14:02.490Z,101575.56
2022-11-27T18:16:34.676Z,101578.34
2022-11-27T18:19:08.884Z,101579.88
2022-11-27T18:21:38.132Z,101574.84
2022-11-27T18:24:24.337Z,101579.97
2022-11-27T18:27:10.355Z,101578.66
2022-11-27T18:29:41.739Z,101573.59
2022-11-27T18:32:10.915Z,101569.25
2022-11-27T18:34:38.820Z,101571.78
2022-11-27T18:37:07.884Z,101572.97
2022-11-27T18:39:37.149Z,101566.03
2022-11-27T18:42:06.515Z,101571.13
2022-11-27T18:44:41.123Z,101570.25
2022-11-27T18:47:13.683Z,101570.41
2022-11-27T18:49:43.448Z,101565.47
2022-11-27T18:52:11.894Z,101575.69
2022-11-27T18:54:39.676Z,101574.84
2022-11-27T18:57:08.605Z,101578.19
2022-11-27T18:59:36.853Z,101572.09
2022-11-27T19:02:06.310Z,101569.69
2022-11-27T19:04:37.614Z,101572.22
2022-11-27T19:07:06.054Z,101577.06
2022-11-27T19:09:33.925Z,101580.13
2022-11-27T19:12:02.018Z,101577.44
2022-11-27T19:14:30.766Z,101572.16
2022-11-27T19:16:58.862Z,101575.97
2022-11-27T19:19:53.307Z,101564.84
2022-11-27T19:22:16.914Z,101570.72
2022-11-27T19:24:44.769Z,101571.56
2022-11-27T19:27:14.367Z,101570.59
2022-11-27T19:29:42.394Z,101561.88
2022-11-27T19:32:11.021Z,101565.34
2022-11-27T19:34:39.277Z,101561.97
2022-11-27T19:37:08.571Z,101563.50
2022-11-27T19:39:36.305Z,101567.63
2022-11-27T19:42:07.274Z,101563.38
2022-11-27T19:44:35.912Z,101564.13
2022-11-27T19:47:04.403Z,101556.59
2022-11-27T19:49:32.367Z,101560.16
2022-11-27T19:52:00.779Z,101561.75
2022-11-27T19:54:29.715Z,101561.69
2022-11-27T19:56:58.183Z,101551.72
2022-11-27T19:59:26.496Z,101557.44
2022-11-27T20:01:56.672Z,101554.91
2022-11-27T20:04:29.516Z,101549.69
2022-11-27T20:06:57.612Z,101547.84
2022-11-27T20:09:25.367Z,101552.03
2022-11-27T20:11:53.681Z,101549.63
2022-11-27T20:14:21.398Z,101541.97
2022-11-27T20:16:49.611Z,101539.59
2022-11-27T20:19:17.841Z,101541.19
2022-11-27T20:21:46.325Z,101536.03
2022-11-27T20:24:14.449Z,101538.78
2022-11-27T20:26:43.217Z,101543.34
2022-11-27T20:29:12.849Z,101548.66
2022-11-27T20:31:42.225Z,101543.34
2022-11-27T20:34:18.831Z,101548.53
2022-11-27T20:36:48.097Z,101553.63
2022-11-27T20:39:20.898Z,101545.03
2022-11-27T20:41:50.121Z,101549.28
2022-11-27T20:44:18.389Z,101534.34
2022-11-27T20:46:47.291Z,101536.94
2022-11-27T20:49:16.271Z,101535.41
2022-11-27T20:51:46.676Z,101540.28
2022-11-27T20:54:14.759Z,101545.63
2022-11-27T20:56:45.610Z,101544.06
2022-11-27T20:59:13.958Z,101550.09
2022-11-27T21:01:42.582Z,101548.06
2022-11-27T21:04:23.402Z,101551.41
2022-11-27T21:06:52.605Z,101539.63
2022-11-27T21:09:21.292Z,101538.72
2022-11-27T21:11:49.839Z,101534.41
2022-11-27T21:14:18.402Z,101536.09
2022-11-27T21:16:49.161Z,101542.88
2022-11-27T21:19:26.381Z,101537.94
2022-11-27T21:21:56.924Z,101538.72
2022-11-27T21:24:27.964Z,101541.38
2022-11-27T21:26:57.078Z,101539.56
2022-11-27T21:29:27.828Z,101534.50
2022-11-27T21:31:57.278Z,101542.16
2022-11-27T21:34:25.801Z,101544.81
2022-11-27T21:36:54.374Z,101541.50
2022-11-27T21:39:22.548Z,101544.03
2022-11-27T21:41:52.853Z,101536.03
2022-11-27T21:44:21.958Z,101537.84
2022-11-27T21:46:51.230Z,101538.69
2022-11-27T21:49:20.986Z,101534.38
2022-11-27T21:51:55.374Z,101534.19
2022-11-27T21:54:30.788Z,101536.78
2022-11-27T21:56:58.948Z,101527.28
2022-11-27T21:59:27.097Z,101532.50
2022-11-27T22:01:57.283Z,101532.50
2022-11-27T22:04:26.101Z,101532.78
2022-11-27T22:06:54.202Z,101531.75
2022-11-27T22:09:21.880Z,101532.63
2022-11-27T22:11:52.119Z,101530.94
2022-11-27T22:14:20.965Z,101531.69
2022-11-27T22:16:49.021Z,101523.13
2022-11-27T22:19:17.350Z,101530.13
2022-11-27T22:21:45.767Z,101529.34
2022-11-27T22:24:18.887Z,101521.63
2022-11-27T22:26:49.706Z,101520.03
2022-11-27T22:29:18.567Z,101515.44
2022-11-27T22:31:47.438Z,101522.44
2022-11-27T22:34:16.720Z,101519.75
2022-11-27T22:36:46.071Z,101519.56
2022-11-27T22:39:14.627Z,101518.78
2022-11-27T22:41:42.999Z,101512.88
2022-11-27T22:44:15.252Z,101513.06
2022-11-27T22:46:43.645Z,101514.59
2022-11-27T22:49:14.361Z,101512.00
2022-11-27T22:51:42.693Z,101512.00
2022-11-27T22:54:13.828Z,101505.59
2022-11-27T22:56:42.212Z,101510.75
2022-11-27T23:01:59.844Z,101506.16
2022-11-27T23:04:28.386Z,101504.31
2022-11-27T23:06:56.384Z,101500.03
2022-11-27T23:09:24.603Z,101499.00
2022-11-27T23:11:52.917Z,101497.25
2022-11-27T23:14:20.660Z,101490.75
2022-11-27T23:16:48.809Z,101494.34
2022-11-27T23:19:16.764Z,101491.53
2022-11-27T23:21:44.813Z,101488.91
2022-11-27T23:24:15.301Z,101485.38
2022-11-27T23:26:43.945Z,101489.47
2022-11-27T23:29:11.874Z,101477.56
2022-11-27T23:31:40.157Z,101479.25
2022-11-27T23:34:11.659Z,101475.50
2022-11-27T23:36:39.797Z,101477.56
2022-11-27T23:39:08.692Z,101477.56
2022-11-27T23:41:36.780Z,101480.88
2022-11-27T23:44:04.642Z,101484.22
2022-11-27T23:46:32.667Z,101474.25
2022-11-27T23:49:01.016Z,101480.06
2022-11-27T23:51:32.137Z,101478.69
2022-11-27T23:54:00.922Z,101471.00
2022-11-27T23:56:31.960Z,101473.25
2022-11-27T23:59:00.520Z,101479.09
